Ana Sayfa
METAR-TAF:

METAR-TAF

Havaalanları :

Whyalla, Avustralya

Enlem: 33-03-32S, Boylam: 137-30-52E, yükseklik: 12 m

Güncel hava durumu gözlemi

Rapor saat 06:00 UTC de 45 dakika önce yapıldı.
Rüzgar kuzeydan 11 kt
Sıcaklık 19°C
Nem 37%
Basınç 1026 hPa
Görüş mesafesi 10 km veya daha fazla

METAR: YWHA 260600Z AUTO 35011KT 9999 // NCD 19/04 Q1026

Saat: 16:15 (06:45 UTC)


TAF: eksik

4.000'den fazla havaalanı için hava durumu gözlemleri ve tahminleri (METAR ve TAF raporları).

Kullanılabilir istasyonlar harita üzerinde sarı ve kırmızı noktalarla gösterilir.

İstasyonun adını görmek için fareyi noktanın üzerinde gezdirin.

Sonrasında hava gözlem ve tahminlerini görmek için tıklayın.

Haritayı değiştirmek için: yaklaştırmak için siyah artı işaretli yeşil düğmeye ve uzaklaştırmak için de eksi işaretli düğmeye hızla tıklayın; bitişik haritalar için yeşil okları kullanın.


METAR-TAF: